sensor_id;sensor_type;location;lat;lon;timestamp;P1;durP1;ratioP1;P2;durP2;ratioP2
12896;SDS011;6516;35.028;32.372;2022-07-17T00:00:54;6.97;;;4.20;;
12896;SDS011;6516;35.028;32.372;2022-07-17T00:03:22;7.50;;;3.67;;
12896;SDS011;6516;35.028;32.372;2022-07-17T00:05:51;8.20;;;3.88;;
12896;SDS011;6516;35.028;32.372;2022-07-17T00:08:22;8.50;;;3.43;;
12896;SDS011;6516;35.028;32.372;2022-07-17T00:10:51;6.15;;;3.30;;
12896;SDS011;6516;35.028;32.372;2022-07-17T00:13:19;8.20;;;3.33;;
12896;SDS011;6516;35.028;32.372;2022-07-17T00:15:47;6.68;;;3.25;;
12896;SDS011;6516;35.028;32.372;2022-07-17T00:18:15;6.82;;;3.28;;
12896;SDS011;6516;35.028;32.372;2022-07-17T00:20:43;6.40;;;3.20;;
12896;SDS011;6516;35.028;32.372;2022-07-17T00:23:11;8.43;;;3.00;;
12896;SDS011;6516;35.028;32.372;2022-07-17T00:25:41;5.25;;;3.15;;
12896;SDS011;6516;35.028;32.372;2022-07-17T00:28:09;6.55;;;3.15;;
12896;SDS011;6516;35.028;32.372;2022-07-17T00:30:37;8.00;;;3.10;;
12896;SDS011;6516;35.028;32.372;2022-07-17T00:33:06;5.40;;;2.70;;
12896;SDS011;6516;35.028;32.372;2022-07-17T00:35:34;6.47;;;3.05;;
12896;SDS011;6516;35.028;32.372;2022-07-17T00:38:02;6.03;;;2.72;;
12896;SDS011;6516;35.028;32.372;2022-07-17T00:40:30;4.75;;;2.90;;
12896;SDS011;6516;35.028;32.372;2022-07-17T00:42:59;5.18;;;2.70;;
12896;SDS011;6516;35.028;32.372;2022-07-17T00:45:27;5.27;;;2.90;;
12896;SDS011;6516;35.028;32.372;2022-07-17T00:47:56;6.15;;;2.70;;
12896;SDS011;6516;35.028;32.372;2022-07-17T00:50:27;9.40;;;2.90;;
12896;SDS011;6516;35.028;32.372;2022-07-17T00:52:59;6.22;;;2.58;;
12896;SDS011;6516;35.028;32.372;2022-07-17T00:55:28;5.28;;;2.50;;
12896;SDS011;6516;35.028;32.372;2022-07-17T00:57:56;12.37;;;2.60;;
12896;SDS011;6516;35.028;32.372;2022-07-17T01:00:28;5.28;;;2.42;;
12896;SDS011;6516;35.028;32.372;2022-07-17T01:02:57;7.43;;;2.60;;
12896;SDS011;6516;35.028;32.372;2022-07-17T01:05:25;6.22;;;2.60;;
12896;SDS011;6516;35.028;32.372;2022-07-17T01:07:53;8.45;;;2.75;;
12896;SDS011;6516;35.028;32.372;2022-07-17T01:10:21;7.10;;;2.83;;
12896;SDS011;6516;35.028;32.372;2022-07-17T01:12:48;6.78;;;2.88;;
12896;SDS011;6516;35.028;32.372;2022-07-17T01:15:18;5.88;;;2.70;;
12896;SDS011;6516;35.028;32.372;2022-07-17T01:17:46;6.75;;;2.65;;
12896;SDS011;6516;35.028;32.372;2022-07-17T01:20:14;5.45;;;2.65;;
12896;SDS011;6516;35.028;32.372;2022-07-17T01:22:45;5.63;;;2.50;;
12896;SDS011;6516;35.028;32.372;2022-07-17T01:25:15;6.30;;;2.63;;
12896;SDS011;6516;35.028;32.372;2022-07-17T01:27:47;6.25;;;2.80;;
12896;SDS011;6516;35.028;32.372;2022-07-17T01:30:15;6.40;;;2.50;;
12896;SDS011;6516;35.028;32.372;2022-07-17T01:32:44;6.47;;;2.50;;
12896;SDS011;6516;35.028;32.372;2022-07-17T01:35:13;5.83;;;2.43;;
12896;SDS011;6516;35.028;32.372;2022-07-17T01:37:42;8.90;;;2.60;;
12896;SDS011;6516;35.028;32.372;2022-07-17T01:40:13;8.05;;;2.50;;
12896;SDS011;6516;35.028;32.372;2022-07-17T01:42:43;5.90;;;2.20;;
12896;SDS011;6516;35.028;32.372;2022-07-17T01:45:13;6.53;;;2.58;;
12896;SDS011;6516;35.028;32.372;2022-07-17T01:47:42;5.10;;;2.30;;
12896;SDS011;6516;35.028;32.372;2022-07-17T01:50:11;7.38;;;2.60;;
12896;SDS011;6516;35.028;32.372;2022-07-17T01:52:40;6.97;;;2.53;;
12896;SDS011;6516;35.028;32.372;2022-07-17T01:55:12;6.25;;;2.60;;
12896;SDS011;6516;35.028;32.372;2022-07-17T01:57:42;7.00;;;2.40;;
12896;SDS011;6516;35.028;32.372;2022-07-17T02:00:11;4.63;;;2.30;;
12896;SDS011;6516;35.028;32.372;2022-07-17T02:02:43;6.28;;;2.60;;
12896;SDS011;6516;35.028;32.372;2022-07-17T02:05:12;8.65;;;2.50;;
12896;SDS011;6516;35.028;32.372;2022-07-17T02:07:40;7.70;;;2.40;;
12896;SDS011;6516;35.028;32.372;2022-07-17T02:10:11;9.40;;;2.45;;
12896;SDS011;6516;35.028;32.372;2022-07-17T02:12:40;6.87;;;2.50;;
12896;SDS011;6516;35.028;32.372;2022-07-17T02:15:09;5.57;;;2.13;;
12896;SDS011;6516;35.028;32.372;2022-07-17T02:17:38;5.95;;;2.40;;
12896;SDS011;6516;35.028;32.372;2022-07-17T02:20:08;5.93;;;2.42;;
12896;SDS011;6516;35.028;32.372;2022-07-17T02:22:37;6.05;;;2.47;;
12896;SDS011;6516;35.028;32.372;2022-07-17T02:25:06;5.47;;;2.20;;
12896;SDS011;6516;35.028;32.372;2022-07-17T02:27:37;5.40;;;2.28;;
12896;SDS011;6516;35.028;32.372;2022-07-17T02:30:06;7.00;;;2.55;;
12896;SDS011;6516;35.028;32.372;2022-07-17T02:32:37;5.18;;;2.15;;
12896;SDS011;6516;35.028;32.372;2022-07-17T02:35:06;7.68;;;2.60;;
12896;SDS011;6516;35.028;32.372;2022-07-17T02:37:37;6.20;;;2.20;;
12896;SDS011;6516;35.028;32.372;2022-07-17T02:40:07;5.68;;;2.20;;
12896;SDS011;6516;35.028;32.372;2022-07-17T02:42:38;6.93;;;2.42;;
12896;SDS011;6516;35.028;32.372;2022-07-17T02:45:09;5.90;;;2.13;;
12896;SDS011;6516;35.028;32.372;2022-07-17T02:47:37;6.72;;;2.30;;
12896;SDS011;6516;35.028;32.372;2022-07-17T02:50:06;6.17;;;2.20;;
12896;SDS011;6516;35.028;32.372;2022-07-17T02:52:36;4.32;;;2.10;;
12896;SDS011;6516;35.028;32.372;2022-07-17T02:55:04;6.88;;;2.40;;
12896;SDS011;6516;35.028;32.372;2022-07-17T02:57:34;4.85;;;2.40;;
12896;SDS011;6516;35.028;32.372;2022-07-17T03:00:05;4.93;;;2.17;;
12896;SDS011;6516;35.028;32.372;2022-07-17T03:02:36;5.57;;;2.20;;
12896;SDS011;6516;35.028;32.372;2022-07-17T03:05:04;5.80;;;2.28;;
12896;SDS011;6516;35.028;32.372;2022-07-17T03:07:32;4.32;;;2.40;;
12896;SDS011;6516;35.028;32.372;2022-07-17T03:10:01;6.13;;;2.28;;
12896;SDS011;6516;35.028;32.372;2022-07-17T03:12:30;5.68;;;2.13;;
12896;SDS011;6516;35.028;32.372;2022-07-17T03:14:58;5.97;;;2.00;;
12896;SDS011;6516;35.028;32.372;2022-07-17T03:17:27;4.60;;;2.05;;
12896;SDS011;6516;35.028;32.372;2022-07-17T03:19:55;7.38;;;2.40;;
12896;SDS011;6516;35.028;32.372;2022-07-17T03:22:23;4.90;;;2.10;;
12896;SDS011;6516;35.028;32.372;2022-07-17T03:24:51;6.00;;;2.40;;
12896;SDS011;6516;35.028;32.372;2022-07-17T03:27:19;5.77;;;2.23;;
12896;SDS011;6516;35.028;32.372;2022-07-17T03:29:47;4.57;;;2.20;;
12896;SDS011;6516;35.028;32.372;2022-07-17T03:32:15;6.43;;;2.40;;
12896;SDS011;6516;35.028;32.372;2022-07-17T03:34:45;5.07;;;2.40;;
12896;SDS011;6516;35.028;32.372;2022-07-17T03:37:13;6.70;;;2.40;;
12896;SDS011;6516;35.028;32.372;2022-07-17T03:39:41;6.27;;;2.30;;
12896;SDS011;6516;35.028;32.372;2022-07-17T03:42:09;4.40;;;2.30;;
12896;SDS011;6516;35.028;32.372;2022-07-17T03:44:37;5.88;;;2.33;;
12896;SDS011;6516;35.028;32.372;2022-07-17T03:47:04;6.03;;;2.20;;
12896;SDS011;6516;35.028;32.372;2022-07-17T03:49:32;5.35;;;2.70;;
12896;SDS011;6516;35.028;32.372;2022-07-17T03:52:02;5.90;;;2.40;;
12896;SDS011;6516;35.028;32.372;2022-07-17T03:54:30;5.18;;;2.53;;
12896;SDS011;6516;35.028;32.372;2022-07-17T03:56:58;5.38;;;2.75;;
12896;SDS011;6516;35.028;32.372;2022-07-17T03:59:26;4.43;;;2.35;;
12896;SDS011;6516;35.028;32.372;2022-07-17T04:01:54;6.78;;;2.88;;
12896;SDS011;6516;35.028;32.372;2022-07-17T04:04:22;7.37;;;3.20;;
12896;SDS011;6516;35.028;32.372;2022-07-17T04:06:50;10.35;;;4.32;;
12896;SDS011;6516;35.028;32.372;2022-07-17T04:09:19;8.27;;;4.70;;
12896;SDS011;6516;35.028;32.372;2022-07-17T04:11:47;9.60;;;4.20;;
12896;SDS011;6516;35.028;32.372;2022-07-17T04:14:15;7.75;;;3.70;;
12896;SDS011;6516;35.028;32.372;2022-07-17T04:16:44;7.90;;;3.70;;
12896;SDS011;6516;35.028;32.372;2022-07-17T04:19:12;8.48;;;4.00;;
12896;SDS011;6516;35.028;32.372;2022-07-17T04:21:40;9.20;;;4.32;;
12896;SDS011;6516;35.028;32.372;2022-07-17T04:24:08;8.65;;;4.47;;
12896;SDS011;6516;35.028;32.372;2022-07-17T04:26:37;8.18;;;4.35;;
12896;SDS011;6516;35.028;32.372;2022-07-17T04:29:06;9.80;;;4.37;;
12896;SDS011;6516;35.028;32.372;2022-07-17T04:31:34;9.77;;;4.20;;
12896;SDS011;6516;35.028;32.372;2022-07-17T04:34:02;10.90;;;4.65;;
12896;SDS011;6516;35.028;32.372;2022-07-17T04:36:31;10.70;;;4.35;;
12896;SDS011;6516;35.028;32.372;2022-07-17T04:38:58;9.10;;;4.28;;
12896;SDS011;6516;35.028;32.372;2022-07-17T04:41:26;8.67;;;4.00;;
12896;SDS011;6516;35.028;32.372;2022-07-17T04:43:56;11.23;;;4.35;;
12896;SDS011;6516;35.028;32.372;2022-07-17T04:46:23;8.82;;;4.50;;
12896;SDS011;6516;35.028;32.372;2022-07-17T04:48:51;8.38;;;4.35;;
12896;SDS011;6516;35.028;32.372;2022-07-17T04:51:20;10.55;;;4.85;;
12896;SDS011;6516;35.028;32.372;2022-07-17T04:53:48;8.60;;;4.50;;
12896;SDS011;6516;35.028;32.372;2022-07-17T04:56:16;9.07;;;4.95;;
12896;SDS011;6516;35.028;32.372;2022-07-17T04:58:44;7.30;;;4.47;;
12896;SDS011;6516;35.028;32.372;2022-07-17T05:01:13;14.10;;;4.88;;
12896;SDS011;6516;35.028;32.372;2022-07-17T05:03:41;11.85;;;4.68;;
12896;SDS011;6516;35.028;32.372;2022-07-17T05:06:09;11.10;;;4.50;;
12896;SDS011;6516;35.028;32.372;2022-07-17T05:08:37;11.75;;;4.45;;
12896;SDS011;6516;35.028;32.372;2022-07-17T05:11:05;9.02;;;4.25;;
12896;SDS011;6516;35.028;32.372;2022-07-17T05:13:33;9.88;;;4.20;;
12896;SDS011;6516;35.028;32.372;2022-07-17T05:16:01;11.13;;;4.10;;
12896;SDS011;6516;35.028;32.372;2022-07-17T05:18:30;9.93;;;4.30;;
12896;SDS011;6516;35.028;32.372;2022-07-17T05:20:58;11.65;;;4.57;;
12896;SDS011;6516;35.028;32.372;2022-07-17T05:23:26;10.75;;;4.15;;
12896;SDS011;6516;35.028;32.372;2022-07-17T05:25:54;12.50;;;4.15;;
12896;SDS011;6516;35.028;32.372;2022-07-17T05:28:22;11.05;;;4.30;;
12896;SDS011;6516;35.028;32.372;2022-07-17T05:30:49;11.23;;;3.73;;
12896;SDS011;6516;35.028;32.372;2022-07-17T05:33:17;13.10;;;3.63;;
12896;SDS011;6516;35.028;32.372;2022-07-17T05:35:46;8.68;;;3.90;;
12896;SDS011;6516;35.028;32.372;2022-07-17T05:38:14;10.93;;;3.78;;
12896;SDS011;6516;35.028;32.372;2022-07-17T05:40:42;8.70;;;3.78;;
12896;SDS011;6516;35.028;32.372;2022-07-17T05:43:10;10.03;;;3.33;;
12896;SDS011;6516;35.028;32.372;2022-07-17T05:45:38;11.13;;;3.60;;
12896;SDS011;6516;35.028;32.372;2022-07-17T05:48:06;10.15;;;4.03;;
12896;SDS011;6516;35.028;32.372;2022-07-17T05:50:34;8.82;;;3.35;;
12896;SDS011;6516;35.028;32.372;2022-07-17T05:53:04;11.43;;;3.95;;
12896;SDS011;6516;35.028;32.372;2022-07-17T05:55:31;9.27;;;3.23;;
12896;SDS011;6516;35.028;32.372;2022-07-17T05:57:59;8.55;;;3.47;;
12896;SDS011;6516;35.028;32.372;2022-07-17T06:00:28;11.32;;;3.00;;
12896;SDS011;6516;35.028;32.372;2022-07-17T06:02:56;9.55;;;3.58;;
12896;SDS011;6516;35.028;32.372;2022-07-17T06:05:24;9.73;;;3.67;;
12896;SDS011;6516;35.028;32.372;2022-07-17T06:07:53;8.87;;;3.50;;
12896;SDS011;6516;35.028;32.372;2022-07-17T06:10:23;9.80;;;3.33;;
12896;SDS011;6516;35.028;32.372;2022-07-17T06:12:52;9.48;;;3.22;;
12896;SDS011;6516;35.028;32.372;2022-07-17T06:15:21;9.23;;;3.13;;
12896;SDS011;6516;35.028;32.372;2022-07-17T06:17:50;8.68;;;3.55;;
12896;SDS011;6516;35.028;32.372;2022-07-17T06:20:19;10.97;;;3.93;;
12896;SDS011;6516;35.028;32.372;2022-07-17T06:22:47;12.55;;;3.70;;
12896;SDS011;6516;35.028;32.372;2022-07-17T06:25:15;8.38;;;3.30;;
12896;SDS011;6516;35.028;32.372;2022-07-17T06:27:44;6.78;;;2.97;;
12896;SDS011;6516;35.028;32.372;2022-07-17T06:30:13;8.80;;;3.38;;
12896;SDS011;6516;35.028;32.372;2022-07-17T06:32:42;9.30;;;3.50;;
12896;SDS011;6516;35.028;32.372;2022-07-17T06:35:11;9.70;;;3.40;;
12896;SDS011;6516;35.028;32.372;2022-07-17T06:37:39;9.18;;;3.40;;
12896;SDS011;6516;35.028;32.372;2022-07-17T06:40:07;7.47;;;3.03;;
12896;SDS011;6516;35.028;32.372;2022-07-17T06:42:36;10.25;;;3.47;;
12896;SDS011;6516;35.028;32.372;2022-07-17T06:45:07;8.80;;;3.30;;
12896;SDS011;6516;35.028;32.372;2022-07-17T06:47:37;8.57;;;3.35;;
12896;SDS011;6516;35.028;32.372;2022-07-17T06:50:06;9.20;;;3.13;;
12896;SDS011;6516;35.028;32.372;2022-07-17T06:52:36;8.43;;;3.28;;
12896;SDS011;6516;35.028;32.372;2022-07-17T06:55:04;8.07;;;3.58;;
12896;SDS011;6516;35.028;32.372;2022-07-17T06:57:33;9.47;;;3.53;;
12896;SDS011;6516;35.028;32.372;2022-07-17T07:00:02;9.75;;;3.45;;
12896;SDS011;6516;35.028;32.372;2022-07-17T07:02:33;10.55;;;3.30;;
12896;SDS011;6516;35.028;32.372;2022-07-17T07:05:02;8.30;;;3.42;;
12896;SDS011;6516;35.028;32.372;2022-07-17T07:07:31;8.18;;;3.25;;
12896;SDS011;6516;35.028;32.372;2022-07-17T07:10:00;7.80;;;3.13;;
12896;SDS011;6516;35.028;32.372;2022-07-17T07:12:28;11.77;;;4.00;;
12896;SDS011;6516;35.028;32.372;2022-07-17T07:14:56;9.88;;;4.15;;
12896;SDS011;6516;35.028;32.372;2022-07-17T07:17:24;8.13;;;3.00;;
12896;SDS011;6516;35.028;32.372;2022-07-17T07:19:54;10.98;;;3.38;;
12896;SDS011;6516;35.028;32.372;2022-07-17T07:22:21;8.67;;;3.20;;
12896;SDS011;6516;35.028;32.372;2022-07-17T07:24:49;6.75;;;2.95;;
12896;SDS011;6516;35.028;32.372;2022-07-17T07:27:17;8.30;;;3.50;;
12896;SDS011;6516;35.028;32.372;2022-07-17T07:29:45;7.13;;;3.08;;
12896;SDS011;6516;35.028;32.372;2022-07-17T07:32:13;8.85;;;3.35;;
12896;SDS011;6516;35.028;32.372;2022-07-17T07:34:41;9.03;;;2.80;;
12896;SDS011;6516;35.028;32.372;2022-07-17T07:37:10;8.45;;;2.72;;
12896;SDS011;6516;35.028;32.372;2022-07-17T07:39:38;5.32;;;2.63;;
12896;SDS011;6516;35.028;32.372;2022-07-17T07:42:06;8.55;;;2.90;;
12896;SDS011;6516;35.028;32.372;2022-07-17T07:44:34;8.32;;;3.15;;
12896;SDS011;6516;35.028;32.372;2022-07-17T07:47:02;9.87;;;3.33;;
12896;SDS011;6516;35.028;32.372;2022-07-17T07:49:30;9.85;;;3.40;;
12896;SDS011;6516;35.028;32.372;2022-07-17T07:51:58;8.65;;;3.60;;
12896;SDS011;6516;35.028;32.372;2022-07-17T07:54:27;8.98;;;2.90;;
12896;SDS011;6516;35.028;32.372;2022-07-17T07:56:55;11.63;;;3.60;;
12896;SDS011;6516;35.028;32.372;2022-07-17T07:59:22;7.07;;;3.23;;
12896;SDS011;6516;35.028;32.372;2022-07-17T08:01:50;10.18;;;3.47;;
12896;SDS011;6516;35.028;32.372;2022-07-17T08:04:18;9.35;;;3.40;;
12896;SDS011;6516;35.028;32.372;2022-07-17T08:06:46;8.15;;;3.22;;
12896;SDS011;6516;35.028;32.372;2022-07-17T08:09:14;9.88;;;3.20;;
12896;SDS011;6516;35.028;32.372;2022-07-17T08:11:43;11.63;;;3.10;;
12896;SDS011;6516;35.028;32.372;2022-07-17T08:14:11;9.68;;;3.17;;
12896;SDS011;6516;35.028;32.372;2022-07-17T08:16:39;7.13;;;3.05;;
12896;SDS011;6516;35.028;32.372;2022-07-17T08:19:06;9.98;;;3.33;;
12896;SDS011;6516;35.028;32.372;2022-07-17T08:21:34;8.40;;;3.25;;
12896;SDS011;6516;35.028;32.372;2022-07-17T08:24:02;8.90;;;2.77;;
12896;SDS011;6516;35.028;32.372;2022-07-17T08:26:31;7.43;;;2.90;;
12896;SDS011;6516;35.028;32.372;2022-07-17T08:29:01;9.00;;;2.97;;
12896;SDS011;6516;35.028;32.372;2022-07-17T08:31:28;8.85;;;3.20;;
12896;SDS011;6516;35.028;32.372;2022-07-17T08:33:57;7.30;;;3.20;;
12896;SDS011;6516;35.028;32.372;2022-07-17T08:36:25;7.47;;;3.17;;
12896;SDS011;6516;35.028;32.372;2022-07-17T08:38:53;7.97;;;3.00;;
12896;SDS011;6516;35.028;32.372;2022-07-17T08:41:20;9.73;;;3.40;;
12896;SDS011;6516;35.028;32.372;2022-07-17T08:43:49;12.13;;;3.53;;
12896;SDS011;6516;35.028;32.372;2022-07-17T08:46:20;11.05;;;3.60;;
12896;SDS011;6516;35.028;32.372;2022-07-17T08:48:52;7.43;;;3.03;;
12896;SDS011;6516;35.028;32.372;2022-07-17T08:51:26;7.82;;;3.22;;
12896;SDS011;6516;35.028;32.372;2022-07-17T08:53:54;11.20;;;3.30;;
12896;SDS011;6516;35.028;32.372;2022-07-17T08:56:23;7.90;;;2.97;;
12896;SDS011;6516;35.028;32.372;2022-07-17T08:58:51;7.68;;;3.30;;
12896;SDS011;6516;35.028;32.372;2022-07-17T09:01:22;7.97;;;3.10;;
12896;SDS011;6516;35.028;32.372;2022-07-17T09:03:55;8.75;;;3.20;;
12896;SDS011;6516;35.028;32.372;2022-07-17T09:06:26;10.07;;;3.42;;
12896;SDS011;6516;35.028;32.372;2022-07-17T09:09:04;10.30;;;3.20;;
12896;SDS011;6516;35.028;32.372;2022-07-17T09:11:41;10.65;;;3.30;;
12896;SDS011;6516;35.028;32.372;2022-07-17T09:14:10;9.20;;;3.13;;
12896;SDS011;6516;35.028;32.372;2022-07-17T09:16:50;7.55;;;2.90;;
12896;SDS011;6516;35.028;32.372;2022-07-17T09:19:24;8.02;;;3.30;;
12896;SDS011;6516;35.028;32.372;2022-07-17T09:22:03;7.72;;;3.20;;
12896;SDS011;6516;35.028;32.372;2022-07-17T09:24:43;9.02;;;3.20;;
12896;SDS011;6516;35.028;32.372;2022-07-17T09:27:15;6.63;;;2.80;;
12896;SDS011;6516;35.028;32.372;2022-07-17T09:29:57;9.40;;;3.38;;
12896;SDS011;6516;35.028;32.372;2022-07-17T09:32:34;9.07;;;3.22;;
12896;SDS011;6516;35.028;32.372;2022-07-17T09:35:05;7.97;;;3.00;;
12896;SDS011;6516;35.028;32.372;2022-07-17T09:37:35;8.38;;;3.40;;
12896;SDS011;6516;35.028;32.372;2022-07-17T09:40:08;11.20;;;3.33;;
12896;SDS011;6516;35.028;32.372;2022-07-17T09:42:57;8.48;;;3.28;;
12896;SDS011;6516;35.028;32.372;2022-07-17T09:45:25;8.65;;;3.50;;
12896;SDS011;6516;35.028;32.372;2022-07-17T09:47:55;7.63;;;2.92;;
12896;SDS011;6516;35.028;32.372;2022-07-17T09:50:23;9.32;;;3.10;;
12896;SDS011;6516;35.028;32.372;2022-07-17T09:52:55;8.10;;;2.90;;
12896;SDS011;6516;35.028;32.372;2022-07-17T09:55:26;7.15;;;2.90;;
12896;SDS011;6516;35.028;32.372;2022-07-17T09:57:56;9.88;;;3.33;;
12896;SDS011;6516;35.028;32.372;2022-07-17T10:00:27;6.38;;;3.00;;
12896;SDS011;6516;35.028;32.372;2022-07-17T10:02:57;8.07;;;3.00;;
12896;SDS011;6516;35.028;32.372;2022-07-17T10:05:25;6.17;;;3.00;;
12896;SDS011;6516;35.028;32.372;2022-07-17T10:07:54;8.48;;;2.80;;
12896;SDS011;6516;35.028;32.372;2022-07-17T10:10:22;7.47;;;2.80;;
12896;SDS011;6516;35.028;32.372;2022-07-17T10:12:50;7.88;;;2.95;;
12896;SDS011;6516;35.028;32.372;2022-07-17T10:15:23;10.20;;;2.97;;
12896;SDS011;6516;35.028;32.372;2022-07-17T10:18:04;8.87;;;3.10;;
12896;SDS011;6516;35.028;32.372;2022-07-17T10:20:33;6.57;;;2.65;;
12896;SDS011;6516;35.028;32.372;2022-07-17T10:23:10;9.00;;;2.83;;
12896;SDS011;6516;35.028;32.372;2022-07-17T10:25:39;7.00;;;2.83;;
12896;SDS011;6516;35.028;32.372;2022-07-17T10:28:08;6.57;;;2.92;;
12896;SDS011;6516;35.028;32.372;2022-07-17T10:30:40;6.80;;;2.60;;
12896;SDS011;6516;35.028;32.372;2022-07-17T10:33:15;7.65;;;2.92;;
12896;SDS011;6516;35.028;32.372;2022-07-17T10:35:45;9.75;;;2.95;;
12896;SDS011;6516;35.028;32.372;2022-07-17T10:38:16;7.05;;;2.70;;
12896;SDS011;6516;35.028;32.372;2022-07-17T10:40:44;6.50;;;2.78;;
12896;SDS011;6516;35.028;32.372;2022-07-17T10:43:12;6.97;;;2.83;;
12896;SDS011;6516;35.028;32.372;2022-07-17T10:45:41;9.45;;;2.90;;
12896;SDS011;6516;35.028;32.372;2022-07-17T10:48:14;9.35;;;3.22;;
12896;SDS011;6516;35.028;32.372;2022-07-17T10:50:45;9.32;;;3.00;;
12896;SDS011;6516;35.028;32.372;2022-07-17T10:53:16;11.93;;;3.38;;
12896;SDS011;6516;35.028;32.372;2022-07-17T10:55:46;8.57;;;2.67;;
12896;SDS011;6516;35.028;32.372;2022-07-17T10:58:19;9.85;;;3.05;;
12896;SDS011;6516;35.028;32.372;2022-07-17T11:00:57;8.32;;;2.88;;
12896;SDS011;6516;35.028;32.372;2022-07-17T11:03:29;10.82;;;2.92;;
12896;SDS011;6516;35.028;32.372;2022-07-17T11:06:11;8.07;;;2.90;;
12896;SDS011;6516;35.028;32.372;2022-07-17T11:08:46;6.53;;;2.83;;
12896;SDS011;6516;35.028;32.372;2022-07-17T11:11:17;9.75;;;3.13;;
12896;SDS011;6516;35.028;32.372;2022-07-17T11:13:46;7.55;;;2.67;;
12896;SDS011;6516;35.028;32.372;2022-07-17T11:16:23;7.00;;;2.80;;
12896;SDS011;6516;35.028;32.372;2022-07-17T11:18:54;9.00;;;3.15;;
12896;SDS011;6516;35.028;32.372;2022-07-17T11:21:23;7.83;;;2.90;;
12896;SDS011;6516;35.028;32.372;2022-07-17T11:23:51;8.02;;;2.83;;
12896;SDS011;6516;35.028;32.372;2022-07-17T11:26:22;9.52;;;2.85;;
12896;SDS011;6516;35.028;32.372;2022-07-17T11:28:50;8.38;;;2.83;;
12896;SDS011;6516;35.028;32.372;2022-07-17T11:31:19;7.80;;;3.03;;
12896;SDS011;6516;35.028;32.372;2022-07-17T11:33:49;7.77;;;2.57;;
12896;SDS011;6516;35.028;32.372;2022-07-17T11:36:21;7.85;;;2.75;;
12896;SDS011;6516;35.028;32.372;2022-07-17T11:38:52;10.93;;;3.20;;
12896;SDS011;6516;35.028;32.372;2022-07-17T11:41:23;8.68;;;2.90;;
12896;SDS011;6516;35.028;32.372;2022-07-17T11:43:59;7.97;;;3.08;;
12896;SDS011;6516;35.028;32.372;2022-07-17T11:46:28;7.47;;;2.60;;
12896;SDS011;6516;35.028;32.372;2022-07-17T11:48:58;7.20;;;2.78;;
12896;SDS011;6516;35.028;32.372;2022-07-17T11:51:41;8.32;;;3.30;;
12896;SDS011;6516;35.028;32.372;2022-07-17T11:54:10;6.32;;;2.78;;
12896;SDS011;6516;35.028;32.372;2022-07-17T11:56:40;8.00;;;2.90;;
12896;SDS011;6516;35.028;32.372;2022-07-17T11:59:09;8.97;;;2.93;;
12896;SDS011;6516;35.028;32.372;2022-07-17T12:01:38;11.68;;;3.30;;
12896;SDS011;6516;35.028;32.372;2022-07-17T12:04:09;10.15;;;2.80;;
12896;SDS011;6516;35.028;32.372;2022-07-17T12:06:42;6.90;;;2.85;;
12896;SDS011;6516;35.028;32.372;2022-07-17T12:09:11;7.53;;;2.92;;
12896;SDS011;6516;35.028;32.372;2022-07-17T12:11:46;7.93;;;3.00;;
12896;SDS011;6516;35.028;32.372;2022-07-17T12:14:16;9.43;;;2.92;;
12896;SDS011;6516;35.028;32.372;2022-07-17T12:16:44;10.98;;;3.33;;
12896;SDS011;6516;35.028;32.372;2022-07-17T12:19:14;10.20;;;3.08;;
12896;SDS011;6516;35.028;32.372;2022-07-17T12:21:52;6.50;;;2.70;;
12896;SDS011;6516;35.028;32.372;2022-07-17T12:24:26;7.80;;;3.10;;
12896;SDS011;6516;35.028;32.372;2022-07-17T12:26:56;9.00;;;3.00;;
12896;SDS011;6516;35.028;32.372;2022-07-17T12:29:26;6.75;;;3.03;;
12896;SDS011;6516;35.028;32.372;2022-07-17T12:32:02;6.95;;;2.80;;
12896;SDS011;6516;35.028;32.372;2022-07-17T12:34:32;8.15;;;3.10;;
12896;SDS011;6516;35.028;32.372;2022-07-17T12:37:02;10.30;;;3.17;;
12896;SDS011;6516;35.028;32.372;2022-07-17T12:39:31;9.02;;;2.80;;
12896;SDS011;6516;35.028;32.372;2022-07-17T12:41:58;7.15;;;3.05;;
12896;SDS011;6516;35.028;32.372;2022-07-17T12:44:26;6.60;;;2.63;;
12896;SDS011;6516;35.028;32.372;2022-07-17T12:46:54;7.85;;;2.90;;
12896;SDS011;6516;35.028;32.372;2022-07-17T12:49:22;6.73;;;2.47;;
12896;SDS011;6516;35.028;32.372;2022-07-17T12:51:51;9.68;;;2.78;;
12896;SDS011;6516;35.028;32.372;2022-07-17T12:54:20;9.25;;;2.85;;
12896;SDS011;6516;35.028;32.372;2022-07-17T12:56:49;8.77;;;2.70;;
12896;SDS011;6516;35.028;32.372;2022-07-17T12:59:16;6.15;;;2.72;;
12896;SDS011;6516;35.028;32.372;2022-07-17T13:01:44;7.93;;;2.67;;
12896;SDS011;6516;35.028;32.372;2022-07-17T13:04:12;6.85;;;2.80;;
12896;SDS011;6516;35.028;32.372;2022-07-17T13:06:40;11.45;;;3.35;;
12896;SDS011;6516;35.028;32.372;2022-07-17T13:09:08;7.55;;;2.22;;
12896;SDS011;6516;35.028;32.372;2022-07-17T13:11:39;8.30;;;2.90;;
12896;SDS011;6516;35.028;32.372;2022-07-17T13:14:07;8.17;;;2.73;;
12896;SDS011;6516;35.028;32.372;2022-07-17T13:16:37;5.80;;;2.75;;
12896;SDS011;6516;35.028;32.372;2022-07-17T13:19:04;6.63;;;2.70;;
12896;SDS011;6516;35.028;32.372;2022-07-17T13:21:33;9.88;;;3.10;;
12896;SDS011;6516;35.028;32.372;2022-07-17T13:24:01;8.32;;;2.83;;
12896;SDS011;6516;35.028;32.372;2022-07-17T13:26:30;7.80;;;2.80;;
12896;SDS011;6516;35.028;32.372;2022-07-17T13:28:59;6.38;;;2.20;;
12896;SDS011;6516;35.028;32.372;2022-07-17T13:31:27;9.63;;;3.05;;
12896;SDS011;6516;35.028;32.372;2022-07-17T13:33:55;8.27;;;2.90;;
12896;SDS011;6516;35.028;32.372;2022-07-17T13:36:23;7.88;;;2.50;;
12896;SDS011;6516;35.028;32.372;2022-07-17T13:38:51;8.13;;;2.73;;
12896;SDS011;6516;35.028;32.372;2022-07-17T13:41:19;7.40;;;2.90;;
12896;SDS011;6516;35.028;32.372;2022-07-17T13:43:47;11.10;;;3.40;;
12896;SDS011;6516;35.028;32.372;2022-07-17T13:46:17;10.10;;;3.15;;
12896;SDS011;6516;35.028;32.372;2022-07-17T13:48:44;9.27;;;3.22;;
12896;SDS011;6516;35.028;32.372;2022-07-17T13:51:12;8.07;;;3.13;;
12896;SDS011;6516;35.028;32.372;2022-07-17T13:53:41;10.05;;;3.00;;
12896;SDS011;6516;35.028;32.372;2022-07-17T13:56:10;6.47;;;2.83;;
12896;SDS011;6516;35.028;32.372;2022-07-17T13:58:39;8.07;;;3.00;;
12896;SDS011;6516;35.028;32.372;2022-07-17T14:01:07;9.00;;;3.30;;
12896;SDS011;6516;35.028;32.372;2022-07-17T14:03:36;13.13;;;3.57;;
12896;SDS011;6516;35.028;32.372;2022-07-17T14:06:04;7.97;;;2.90;;
12896;SDS011;6516;35.028;32.372;2022-07-17T14:08:33;6.13;;;3.20;;
12896;SDS011;6516;35.028;32.372;2022-07-17T14:11:02;8.23;;;2.95;;
12896;SDS011;6516;35.028;32.372;2022-07-17T14:13:31;9.73;;;3.35;;
12896;SDS011;6516;35.028;32.372;2022-07-17T14:15:59;12.93;;;3.30;;
12896;SDS011;6516;35.028;32.372;2022-07-17T14:18:26;10.15;;;3.33;;
12896;SDS011;6516;35.028;32.372;2022-07-17T14:20:56;8.20;;;3.22;;
12896;SDS011;6516;35.028;32.372;2022-07-17T14:23:24;9.00;;;3.72;;
12896;SDS011;6516;35.028;32.372;2022-07-17T14:25:52;7.13;;;3.20;;
12896;SDS011;6516;35.028;32.372;2022-07-17T14:28:20;8.17;;;3.30;;
12896;SDS011;6516;35.028;32.372;2022-07-17T14:30:47;7.93;;;3.10;;
12896;SDS011;6516;35.028;32.372;2022-07-17T14:33:15;7.32;;;3.42;;
12896;SDS011;6516;35.028;32.372;2022-07-17T14:35:44;6.75;;;2.95;;
12896;SDS011;6516;35.028;32.372;2022-07-17T14:38:13;10.85;;;3.40;;
12896;SDS011;6516;35.028;32.372;2022-07-17T14:40:42;7.80;;;3.57;;
12896;SDS011;6516;35.028;32.372;2022-07-17T14:43:10;9.77;;;3.63;;
12896;SDS011;6516;35.028;32.372;2022-07-17T14:45:37;8.48;;;3.85;;
12896;SDS011;6516;35.028;32.372;2022-07-17T14:48:05;10.85;;;4.00;;
12896;SDS011;6516;35.028;32.372;2022-07-17T14:50:33;8.05;;;3.50;;
12896;SDS011;6516;35.028;32.372;2022-07-17T14:53:01;9.30;;;3.67;;
12896;SDS011;6516;35.028;32.372;2022-07-17T14:55:30;7.97;;;3.90;;
12896;SDS011;6516;35.028;32.372;2022-07-17T14:57:59;9.32;;;3.30;;